createdAt,value
2019-05-20T00:01:36.514Z,99129.55
2019-05-20T00:03:43.128Z,99122.82
2019-05-20T00:05:49.617Z,99114.45
2019-05-20T00:07:56.160Z,99118.50
2019-05-20T00:10:02.553Z,99117.22
2019-05-20T00:12:09.097Z,99120.76
2019-05-20T00:14:15.594Z,99123.48
2019-05-20T00:16:22.046Z,99120.45
2019-05-20T00:18:28.453Z,99125.37
2019-05-20T00:20:34.919Z,99129.42
2019-05-20T00:22:41.314Z,99123.34
2019-05-20T00:24:47.757Z,99126.92
2019-05-20T00:26:54.142Z,99122.61
2019-05-20T00:29:00.604Z,99125.78
2019-05-20T00:31:07.076Z,99122.20
2019-05-20T00:33:13.608Z,99124.50
2019-05-20T00:35:20.277Z,99126.75
2019-05-20T00:37:26.821Z,99123.70
2019-05-20T00:39:33.321Z,99118.00
2019-05-20T00:41:39.717Z,99116.71
2019-05-20T00:43:46.508Z,99116.25
2019-05-20T00:45:53.009Z,99118.92
2019-05-20T00:47:59.545Z,99109.63
2019-05-20T00:50:08.183Z,99115.88
2019-05-20T00:52:14.728Z,99112.80
2019-05-20T00:54:21.317Z,99119.11
2019-05-20T00:56:27.962Z,99116.95
2019-05-20T00:58:34.498Z,99113.48
2019-05-20T01:00:41.455Z,99112.61
2019-05-20T01:02:56.488Z,99109.54
2019-05-20T01:04:56.060Z,99102.97
2019-05-20T01:07:02.558Z,99105.63
2019-05-20T01:09:09.481Z,99109.68
2019-05-20T01:11:16.019Z,99097.72
2019-05-20T01:13:22.484Z,99104.48
2019-05-20T01:15:29.018Z,99094.77
2019-05-20T01:17:35.646Z,99094.35
2019-05-20T01:19:42.089Z,99085.02
2019-05-20T01:21:48.603Z,99093.11
2019-05-20T01:23:55.121Z,99091.36
2019-05-20T01:26:01.527Z,99098.95
2019-05-20T01:28:07.997Z,99103.04
2019-05-20T01:30:16.667Z,99098.62
2019-05-20T01:32:23.115Z,99096.83
2019-05-20T01:34:30.377Z,99088.78
2019-05-20T01:36:36.909Z,99086.53
2019-05-20T01:38:43.304Z,99081.70
2019-05-20T01:40:49.802Z,99079.54
2019-05-20T01:42:56.266Z,99073.75
2019-05-20T01:45:02.730Z,99071.13
2019-05-20T01:47:09.438Z,99071.13
2019-05-20T01:49:15.969Z,99059.12
2019-05-20T01:51:24.292Z,99055.25
2019-05-20T01:53:31.467Z,99060.62
2019-05-20T01:55:37.988Z,99059.30
2019-05-20T01:57:44.411Z,99055.80
2019-05-20T01:59:50.876Z,99053.59
2019-05-20T02:01:57.305Z,99051.44
2019-05-20T02:04:03.812Z,99047.89
2019-05-20T02:06:10.395Z,99038.61
2019-05-20T02:08:17.016Z,99039.94
2019-05-20T02:10:23.696Z,99040.86
2019-05-20T02:12:30.198Z,99041.31
2019-05-20T02:14:41.065Z,99035.06
2019-05-20T02:16:48.399Z,99031.11
2019-05-20T02:18:54.868Z,99030.73
2019-05-20T02:21:01.262Z,99030.66
2019-05-20T02:23:14.829Z,99037.39
2019-05-20T02:25:22.417Z,99032.45
2019-05-20T02:27:28.948Z,99034.65
2019-05-20T02:29:35.336Z,99027.52
2019-05-20T02:31:41.963Z,99029.31
2019-05-20T02:33:52.129Z,99033.59
2019-05-20T02:35:56.527Z,99027.39
2019-05-20T02:38:03.485Z,99018.05
2019-05-20T02:40:10.678Z,99014.52
2019-05-20T02:42:17.145Z,99011.94
2019-05-20T02:44:23.654Z,99005.27
2019-05-20T02:46:30.416Z,99001.27
2019-05-20T02:48:36.953Z,99005.22
2019-05-20T02:50:43.526Z,99008.67
2019-05-20T02:52:49.986Z,99010.00
2019-05-20T02:54:56.543Z,99008.72
2019-05-20T02:57:02.978Z,99004.67
2019-05-20T02:59:09.514Z,99006.83
2019-05-20T03:01:16.001Z,99010.78
2019-05-20T03:03:22.605Z,99016.07
2019-05-20T03:05:29.140Z,99010.61
2019-05-20T03:07:35.552Z,99010.05
2019-05-20T03:09:41.966Z,99003.75
2019-05-20T03:11:48.355Z,99007.19
2019-05-20T03:13:54.740Z,99012.81
2019-05-20T03:16:01.281Z,99013.17
2019-05-20T03:18:08.667Z,98999.27
2019-05-20T03:20:15.828Z,98998.75
2019-05-20T03:22:22.347Z,98996.82
2019-05-20T03:24:28.832Z,98998.42
2019-05-20T03:26:35.466Z,99001.86
2019-05-20T03:28:42.065Z,99004.34
2019-05-20T03:30:48.625Z,99002.40
2019-05-20T03:32:55.092Z,99003.03
2019-05-20T03:35:02.249Z,99000.11
2019-05-20T03:37:08.978Z,99002.21
2019-05-20T03:39:15.376Z,99000.58
2019-05-20T03:41:21.894Z,98997.62
2019-05-20T03:43:28.435Z,98996.53
2019-05-20T03:45:35.040Z,98997.25
2019-05-20T03:47:43.330Z,99001.87
2019-05-20T03:49:49.856Z,99002.85
2019-05-20T03:51:56.306Z,99006.29
2019-05-20T03:54:02.856Z,98997.64
2019-05-20T03:56:09.361Z,99008.36
2019-05-20T03:58:15.765Z,98992.88
2019-05-20T04:00:44.666Z,98989.69
2019-05-20T04:02:51.055Z,98991.06
2019-05-20T04:05:02.766Z,98987.72
2019-05-20T04:07:07.331Z,98988.44
2019-05-20T04:09:13.937Z,98981.93
2019-05-20T04:11:20.390Z,98985.25
2019-05-20T04:13:26.913Z,98983.02
2019-05-20T04:15:33.561Z,98977.03
2019-05-20T04:17:39.990Z,98976.78
2019-05-20T04:19:46.466Z,98979.04
2019-05-20T04:21:53.020Z,98972.39
2019-05-20T04:24:01.425Z,98973.98
2019-05-20T04:26:07.845Z,98975.94
2019-05-20T04:28:14.365Z,98972.72
2019-05-20T04:30:21.149Z,98978.70
2019-05-20T04:32:27.690Z,98975.02
2019-05-20T04:34:37.663Z,98971.56
2019-05-20T04:36:44.060Z,98973.86
2019-05-20T04:38:50.485Z,98968.80
2019-05-20T04:40:56.991Z,98977.13
2019-05-20T04:43:03.449Z,98970.66
2019-05-20T04:45:10.782Z,98975.28
2019-05-20T04:47:17.323Z,98976.28
2019-05-20T04:49:23.781Z,98977.09
2019-05-20T04:51:30.273Z,98988.59
2019-05-20T04:53:36.691Z,98989.13
2019-05-20T04:55:43.301Z,98981.31
2019-05-20T04:57:49.712Z,98975.52
2019-05-20T04:59:57.426Z,98980.64
2019-05-20T05:02:03.817Z,98979.14
2019-05-20T05:04:10.287Z,98979.63
2019-05-20T05:06:16.941Z,98969.92
2019-05-20T05:08:23.889Z,98974.74
2019-05-20T05:10:30.371Z,98977.22
2019-05-20T05:12:38.158Z,98967.40
2019-05-20T05:14:44.752Z,98978.89
2019-05-20T05:16:51.418Z,98984.57
2019-05-20T05:18:57.891Z,98981.40
2019-05-20T05:21:04.489Z,98985.50
2019-05-20T05:23:11.409Z,98981.16
2019-05-20T05:25:17.952Z,98973.55
2019-05-20T05:27:24.478Z,98971.24
2019-05-20T05:29:31.082Z,98970.14
2019-05-20T05:31:38.118Z,98974.63
2019-05-20T05:33:44.657Z,98973.02
2019-05-20T05:35:53.726Z,98970.16
2019-05-20T05:38:00.614Z,98973.61
2019-05-20T05:40:08.654Z,98959.09
2019-05-20T05:42:15.095Z,98957.20
2019-05-20T05:44:21.656Z,98950.16
2019-05-20T05:46:28.057Z,98942.22
2019-05-20T05:48:34.442Z,98944.61
2019-05-20T05:50:41.025Z,98942.75
2019-05-20T05:52:47.420Z,98944.16
2019-05-20T05:54:53.919Z,98939.09
2019-05-20T05:57:00.401Z,98932.39
2019-05-20T05:59:06.789Z,98932.66
2019-05-20T06:01:13.241Z,98925.96
2019-05-20T06:03:19.794Z,98925.75
2019-05-20T06:05:26.361Z,98923.05
2019-05-20T06:07:32.754Z,98916.78
2019-05-20T06:09:39.137Z,98910.87
2019-05-20T06:11:45.733Z,98907.50
2019-05-20T06:13:52.326Z,98917.72
2019-05-20T06:15:58.714Z,98912.11
2019-05-20T06:18:05.319Z,98908.27
2019-05-20T06:20:12.617Z,98896.17
2019-05-20T06:22:19.150Z,98897.31
2019-05-20T06:24:25.618Z,98892.14
2019-05-20T06:26:32.171Z,98886.75
2019-05-20T06:28:38.561Z,98895.36
2019-05-20T06:30:46.433Z,98886.11
2019-05-20T06:32:52.901Z,98895.59
2019-05-20T06:35:00.227Z,98885.83
2019-05-20T06:37:12.386Z,98902.34
2019-05-20T06:39:19.375Z,98889.00
2019-05-20T06:41:25.925Z,98900.62
2019-05-20T06:43:32.534Z,98915.19
2019-05-20T06:45:39.000Z,98892.66
2019-05-20T06:47:45.499Z,98890.06
2019-05-20T06:49:51.971Z,98891.41
2019-05-20T06:51:58.368Z,98884.27
2019-05-20T06:54:06.179Z,98887.97
2019-05-20T06:56:12.594Z,98900.52
2019-05-20T06:58:19.146Z,98894.32
2019-05-20T07:00:39.944Z,98908.62
2019-05-20T07:02:46.527Z,98903.45
2019-05-20T07:04:52.990Z,98900.35
2019-05-20T07:06:59.524Z,98897.93
2019-05-20T07:09:07.725Z,98896.41
2019-05-20T07:11:14.312Z,98900.17
2019-05-20T07:13:21.830Z,98899.48
2019-05-20T07:15:28.373Z,98883.73
2019-05-20T07:17:34.893Z,98902.33
2019-05-20T07:19:41.727Z,98906.30
2019-05-20T07:21:48.239Z,98903.91
2019-05-20T07:23:54.766Z,98895.56
2019-05-20T07:26:01.236Z,98922.42
2019-05-20T07:28:07.811Z,98908.33
2019-05-20T07:30:15.890Z,98915.28
2019-05-20T07:32:22.333Z,98910.83
2019-05-20T07:34:28.802Z,98911.40
2019-05-20T07:36:35.320Z,98904.80
2019-05-20T07:38:41.825Z,98905.48
2019-05-20T07:40:48.291Z,98914.08
2019-05-20T07:42:54.729Z,98913.41
2019-05-20T07:45:01.238Z,98909.30
2019-05-20T07:47:10.900Z,98910.87
2019-05-20T07:49:17.708Z,98916.41
2019-05-20T07:51:25.285Z,98918.67
2019-05-20T07:53:33.764Z,98912.56
2019-05-20T07:55:59.655Z,98914.45
2019-05-20T07:58:10.289Z,98922.81
2019-05-20T08:00:17.145Z,98918.23
2019-05-20T08:02:24.505Z,98904.56
2019-05-20T08:04:31.089Z,98910.51
2019-05-20T08:06:37.749Z,98907.79
2019-05-20T08:08:44.393Z,98903.75
2019-05-20T08:10:51.052Z,98907.20
2019-05-20T08:12:57.661Z,98911.52
2019-05-20T08:15:07.128Z,98909.25
2019-05-20T08:17:13.709Z,98908.95
2019-05-20T08:19:20.249Z,98914.56
2019-05-20T08:21:26.830Z,98922.23
2019-05-20T08:23:33.429Z,98922.17
2019-05-20T08:25:39.905Z,98942.82
2019-05-20T08:27:46.425Z,98915.67
2019-05-20T08:29:52.973Z,98918.09
2019-05-20T08:31:59.513Z,98920.95
2019-05-20T08:34:06.117Z,98926.07
2019-05-20T08:36:12.568Z,98924.96
2019-05-20T08:38:19.097Z,98928.67
2019-05-20T08:40:25.648Z,98927.80
2019-05-20T08:42:32.048Z,98914.44
2019-05-20T08:44:38.548Z,98923.16
2019-05-20T08:46:45.008Z,98921.41
2019-05-20T08:48:51.487Z,98922.22
2019-05-20T08:50:58.114Z,98918.62
2019-05-20T08:53:04.707Z,98930.89
2019-05-20T08:55:11.385Z,98917.67
2019-05-20T08:57:18.170Z,98923.59
2019-05-20T08:59:25.844Z,98921.53
2019-05-20T09:01:32.286Z,98931.00
2019-05-20T09:03:38.686Z,98934.00
2019-05-20T09:05:45.136Z,98933.27
2019-05-20T09:08:02.151Z,98929.06
2019-05-20T09:09:59.842Z,98931.64
2019-05-20T09:12:07.088Z,98930.95
2019-05-20T09:14:13.629Z,98929.95
2019-05-20T09:16:20.196Z,98910.37
2019-05-20T09:18:26.605Z,98917.27
2019-05-20T09:20:33.207Z,98910.77
2019-05-20T09:22:39.843Z,98926.03
2019-05-20T09:24:46.457Z,98929.70
2019-05-20T09:26:52.995Z,98927.85
2019-05-20T09:28:59.542Z,98920.67
2019-05-20T09:31:06.544Z,98928.08
2019-05-20T09:33:13.182Z,98922.50
2019-05-20T11:10:14.805Z,98945.84
2019-05-20T11:12:21.314Z,98941.14
2019-05-20T11:14:27.832Z,98940.03
2019-05-20T11:16:34.246Z,98931.89
2019-05-20T11:18:40.780Z,98924.83
2019-05-20T11:20:47.286Z,98927.91
2019-05-20T11:22:53.789Z,98931.28
2019-05-20T11:25:00.234Z,98937.14
2019-05-20T11:27:06.625Z,98948.52
2019-05-20T11:29:13.143Z,98954.91
2019-05-20T11:31:19.604Z,98945.32
2019-05-20T11:33:25.996Z,98945.36
2019-05-20T11:35:32.706Z,98931.80
2019-05-20T11:37:39.166Z,98937.63
2019-05-20T11:39:45.551Z,98937.20
2019-05-20T11:41:54.189Z,98935.30
2019-05-20T11:44:00.064Z,98939.47
2019-05-20T11:46:06.620Z,98941.09
2019-05-20T11:48:13.137Z,98944.11
2019-05-20T11:50:20.128Z,98939.52
2019-05-20T11:52:26.587Z,98930.48
2019-05-20T11:54:33.059Z,98938.39
2019-05-20T11:56:39.543Z,98925.07
2019-05-20T11:58:45.963Z,98927.28
2019-05-20T12:00:52.700Z,98920.69
2019-05-20T12:02:59.376Z,98928.04
2019-05-20T12:05:08.879Z,98945.09
2019-05-20T12:07:15.275Z,98946.55
2019-05-20T12:09:21.821Z,98942.84
2019-05-20T12:11:28.403Z,98946.18
2019-05-20T12:13:34.858Z,98941.73
2019-05-20T12:15:41.265Z,98937.92
2019-05-20T12:17:47.741Z,98934.73
2019-05-20T12:19:54.141Z,98949.75
2019-05-20T12:22:00.546Z,98963.05
2019-05-20T12:24:07.112Z,98972.02
2019-05-20T12:26:13.509Z,98962.31
2019-05-20T12:28:20.015Z,98939.22
2019-05-20T12:30:26.521Z,98937.02
2019-05-20T12:32:32.980Z,98952.66
2019-05-20T12:34:39.407Z,98966.83
2019-05-20T12:36:45.866Z,98975.09
2019-05-20T12:38:52.411Z,98977.27
2019-05-20T12:40:58.812Z,98976.80
2019-05-20T12:43:05.280Z,98986.67
2019-05-20T12:45:12.573Z,98991.44
2019-05-20T12:47:19.035Z,99013.29
2019-05-20T12:49:26.747Z,99033.20
2019-05-20T12:51:33.382Z,99042.05
2019-05-20T12:53:39.917Z,99025.22
2019-05-20T12:55:46.399Z,98998.03
2019-05-20T12:57:53.888Z,98995.75
2019-05-20T13:00:00.275Z,98993.44
2019-05-20T13:02:08.340Z,98982.15
2019-05-20T13:04:14.763Z,98989.73
2019-05-20T13:06:21.150Z,98985.53
2019-05-20T13:08:29.270Z,98991.77
2019-05-20T13:10:35.732Z,99004.62
2019-05-20T13:12:42.348Z,98991.81
2019-05-20T13:14:48.759Z,99002.09
2019-05-20T13:16:55.157Z,99017.17
2019-05-20T13:19:01.637Z,99014.88
2019-05-20T13:21:08.096Z,99015.97
2019-05-20T13:23:15.854Z,99024.47
2019-05-20T13:25:22.625Z,99026.68
2019-05-20T13:27:29.193Z,99023.84
2019-05-20T13:29:35.584Z,99042.05
2019-05-20T13:31:41.975Z,99054.73
2019-05-20T13:33:48.382Z,99058.63
2019-05-20T13:35:54.759Z,99055.99
2019-05-20T13:38:01.158Z,99043.44
2019-05-20T13:40:09.323Z,99024.67
2019-05-20T13:42:15.842Z,99021.41
2019-05-20T13:44:22.250Z,99005.86
2019-05-20T13:46:28.646Z,99016.59
2019-05-20T13:48:35.053Z,99012.27
2019-05-20T13:50:41.524Z,98993.91
2019-05-20T13:52:48.004Z,98980.92
2019-05-20T13:54:54.400Z,98981.25
2019-05-20T13:57:00.933Z,98985.61
2019-05-20T13:59:07.405Z,98984.44
2019-05-20T14:01:13.816Z,98997.23
2019-05-20T14:03:20.330Z,99003.50
2019-05-20T14:05:26.800Z,99003.44
2019-05-20T14:07:33.204Z,98993.59
2019-05-20T14:09:39.669Z,99006.78
2019-05-20T14:11:46.227Z,99018.80
2019-05-20T14:13:52.697Z,99029.02
2019-05-20T14:15:59.268Z,99023.27
2019-05-20T14:18:05.748Z,99010.22
2019-05-20T14:20:12.722Z,98998.02
2019-05-20T14:22:19.123Z,98988.88
2019-05-20T14:24:25.521Z,99001.11
2019-05-20T14:26:31.949Z,99007.63
2019-05-20T14:28:38.528Z,98996.94
2019-05-20T14:30:45.620Z,98995.09
2019-05-20T14:32:52.046Z,98973.37
2019-05-20T14:34:58.652Z,98979.02
2019-05-20T14:37:05.112Z,98978.77
2019-05-20T14:39:11.499Z,98964.89
2019-05-20T14:41:21.522Z,98964.27
2019-05-20T14:43:27.167Z,98949.83
2019-05-20T14:45:33.760Z,98944.43
2019-05-20T14:47:40.197Z,98937.53
2019-05-20T14:49:46.579Z,98940.86
2019-05-20T14:51:52.969Z,98930.06
2019-05-20T14:53:59.394Z,98923.45
2019-05-20T14:56:05.869Z,98908.91
2019-05-20T14:58:12.415Z,98898.99
2019-05-20T15:00:21.429Z,98895.63
2019-05-20T15:02:30.864Z,98895.28
2019-05-20T15:04:36.078Z,98893.34
2019-05-20T15:06:45.362Z,98893.23
2019-05-20T15:08:51.857Z,98898.64
2019-05-20T15:10:58.352Z,98906.69
2019-05-20T15:13:05.441Z,98902.70
2019-05-20T15:15:12.750Z,98905.73
2019-05-20T15:17:19.229Z,98903.44
2019-05-20T15:19:25.657Z,98899.50
2019-05-20T15:21:32.242Z,98900.16
2019-05-20T15:23:38.795Z,98890.31
2019-05-20T15:25:46.344Z,98879.84
2019-05-20T15:27:52.986Z,98877.67
2019-05-20T15:29:59.580Z,98874.45
2019-05-20T15:32:06.058Z,98877.20
2019-05-20T15:34:12.427Z,98883.50
2019-05-20T15:36:18.883Z,98882.56
2019-05-20T15:38:25.359Z,98892.35
2019-05-20T15:40:31.874Z,98897.86
2019-05-20T15:42:38.308Z,98906.45
2019-05-20T15:44:44.757Z,98911.42
2019-05-20T15:46:51.236Z,98905.33
2019-05-20T15:49:02.983Z,98894.60
2019-05-20T15:51:09.462Z,98886.63
2019-05-20T15:53:15.921Z,98887.70
2019-05-20T15:55:22.478Z,98880.66
2019-05-20T15:57:28.919Z,98881.75
2019-05-20T15:59:45.486Z,98890.53
2019-05-20T16:01:44.574Z,98879.12
2019-05-20T16:03:51.711Z,98875.70
2019-05-20T16:05:59.961Z,98875.84
2019-05-20T16:08:06.589Z,98895.13
2019-05-20T16:10:13.142Z,98903.08
2019-05-20T16:12:19.683Z,98910.67
2019-05-20T16:14:26.171Z,98926.61
2019-05-20T16:16:32.571Z,98928.77
2019-05-20T16:18:39.085Z,98929.16
2019-05-20T16:20:45.504Z,98942.97
2019-05-20T16:22:51.973Z,98961.24
2019-05-20T16:24:58.373Z,98971.29
2019-05-20T16:27:05.021Z,98973.78
2019-05-20T16:29:11.546Z,98972.09
2019-05-20T16:31:18.104Z,98957.97
2019-05-20T16:33:24.559Z,98952.84
2019-05-20T16:35:31.015Z,98950.63
2019-05-20T16:37:37.661Z,98963.31
2019-05-20T16:39:44.187Z,98976.45
2019-05-20T16:41:50.588Z,98989.34
2019-05-20T16:43:57.480Z,98986.84
2019-05-20T16:46:04.902Z,98987.83
2019-05-20T16:48:11.396Z,98989.20
2019-05-20T16:50:19.522Z,98993.59
2019-05-20T16:52:26.247Z,98998.42
2019-05-20T16:54:32.707Z,99008.77
2019-05-20T16:56:40.546Z,99014.81
2019-05-20T16:58:47.164Z,99023.03
2019-05-20T17:00:53.697Z,99029.92
2019-05-20T17:03:00.157Z,99017.23
2019-05-20T17:05:08.130Z,99006.70
2019-05-20T17:07:16.423Z,99012.51
2019-05-20T17:09:22.937Z,99017.14
2019-05-20T17:11:29.423Z,99011.98
2019-05-20T17:13:36.470Z,99007.68
2019-05-20T17:15:42.915Z,98978.00
2019-05-20T17:17:49.386Z,98963.91
2019-05-20T17:19:55.874Z,98938.87
2019-05-20T17:22:06.166Z,98911.76
2019-05-20T17:24:14.249Z,98901.63
2019-05-20T17:26:21.773Z,98892.28
2019-05-20T17:28:28.353Z,98881.11
2019-05-20T17:30:44.867Z,98887.27
2019-05-20T17:32:43.223Z,98877.86
2019-05-20T17:34:49.673Z,98858.66
2019-05-20T17:36:56.774Z,98857.02
2019-05-20T17:39:05.059Z,98853.57
2019-05-20T17:41:11.747Z,98846.60
2019-05-20T17:43:20.334Z,98836.03
2019-05-20T17:45:27.065Z,98836.84
2019-05-20T17:47:33.730Z,98843.11
2019-05-20T17:49:40.288Z,98838.81
2019-05-20T17:51:46.743Z,98853.55
2019-05-20T17:53:53.227Z,98857.55
2019-05-20T17:55:59.822Z,98861.97
2019-05-20T17:58:07.425Z,98859.23
2019-05-20T18:00:19.036Z,98860.58
2019-05-20T18:02:25.602Z,98857.50
2019-05-20T18:04:31.998Z,98854.83
2019-05-20T18:06:38.386Z,98867.91
2019-05-20T18:08:46.465Z,98872.02
2019-05-20T18:10:52.841Z,98877.92
2019-05-20T18:12:59.238Z,98875.42
2019-05-20T18:15:07.026Z,98870.69
2019-05-20T18:17:13.497Z,98876.64
2019-05-20T18:19:19.916Z,98873.81
2019-05-20T18:21:26.313Z,98870.86
2019-05-20T18:23:32.744Z,98869.67
2019-05-20T18:25:39.852Z,98871.06
2019-05-20T18:27:46.310Z,98871.66
2019-05-20T18:29:52.888Z,98870.78
2019-05-20T18:31:59.417Z,98873.55
2019-05-20T18:34:06.010Z,98867.81
2019-05-20T18:36:12.452Z,98875.87
2019-05-20T18:38:19.831Z,98884.33
2019-05-20T18:40:26.523Z,98890.17
2019-05-20T18:42:33.004Z,98899.51
2019-05-20T18:44:39.416Z,98914.17
2019-05-20T18:46:45.847Z,98925.72
2019-05-20T18:48:52.221Z,98943.05
2019-05-20T18:50:58.615Z,98953.39
2019-05-20T18:53:05.087Z,98969.45
2019-05-20T18:55:11.719Z,98978.83
2019-05-20T18:57:18.105Z,98990.00
2019-05-20T18:59:24.591Z,98998.52
2019-05-20T19:01:31.136Z,99007.84
2019-05-20T19:03:37.600Z,99012.72
2019-05-20T19:05:44.219Z,99020.72
2019-05-20T19:07:50.633Z,99020.77
2019-05-20T19:09:57.182Z,99024.34
2019-05-20T19:12:03.661Z,99031.52
2019-05-20T19:14:10.298Z,99024.94
2019-05-20T19:16:16.839Z,99030.73
2019-05-20T19:18:23.314Z,99028.16
2019-05-20T19:20:29.805Z,99025.53
2019-05-20T19:22:36.260Z,99020.25
2019-05-20T19:24:42.660Z,99011.33
2019-05-20T19:26:49.197Z,98997.59
2019-05-20T19:28:55.590Z,98990.00
2019-05-20T19:31:02.130Z,98982.88
2019-05-20T19:33:09.091Z,98971.75
2019-05-20T19:35:16.095Z,98962.88
2019-05-20T19:37:22.876Z,98956.21
2019-05-20T19:39:29.352Z,98954.00
2019-05-20T19:41:35.845Z,98944.21
2019-05-20T19:43:43.604Z,98943.70
2019-05-20T19:45:50.089Z,98947.70
2019-05-20T19:47:56.640Z,98947.24
2019-05-20T19:50:03.219Z,98946.83
2019-05-20T19:52:10.073Z,98946.47
2019-05-20T19:54:17.641Z,98941.23
2019-05-20T19:56:24.111Z,98943.66
2019-05-20T19:58:30.587Z,98939.76
2019-05-20T20:00:38.123Z,98940.72
2019-05-20T20:02:45.118Z,98935.02
2019-05-20T20:04:51.690Z,98943.53
2019-05-20T20:06:58.196Z,98949.78
2019-05-20T20:09:06.099Z,98964.06
2019-05-20T20:11:12.571Z,98965.84
2019-05-20T20:13:19.058Z,98966.41
2019-05-20T20:15:25.460Z,98965.16
2019-05-20T20:17:31.882Z,98969.11
2019-05-20T20:19:38.400Z,98973.98
2019-05-20T20:21:44.883Z,98968.23
2019-05-20T20:23:51.409Z,98963.37
2019-05-20T20:25:57.912Z,98971.83
2019-05-20T20:28:06.087Z,98965.66
2019-05-20T20:30:12.922Z,98965.30
2019-05-20T20:32:35.171Z,98960.96
2019-05-20T20:34:30.474Z,98962.34
2019-05-20T20:36:35.744Z,98957.11
2019-05-20T20:38:43.447Z,98950.48
2019-05-20T20:40:49.981Z,98959.40
2019-05-20T20:42:56.432Z,98965.23
2019-05-20T20:45:03.067Z,98956.03
2019-05-20T20:47:10.804Z,98952.58
2019-05-20T20:49:17.303Z,98954.46
2019-05-20T20:51:24.840Z,98959.05
2019-05-20T20:53:31.273Z,98956.50
2019-05-20T20:55:37.766Z,98954.81
2019-05-20T20:57:47.821Z,98952.69
2019-05-20T20:59:54.212Z,98962.52
2019-05-20T21:02:00.734Z,98962.17
2019-05-20T21:04:07.199Z,98965.80
2019-05-20T21:06:16.743Z,98960.52
2019-05-20T21:08:23.294Z,98959.68
2019-05-20T21:10:29.708Z,98965.51
2019-05-20T21:12:36.569Z,98969.50
2019-05-20T21:14:43.030Z,98978.82
2019-05-20T21:16:49.534Z,98984.19
2019-05-20T21:18:55.937Z,98988.22
2019-05-20T21:21:02.563Z,98989.55
2019-05-20T21:23:08.988Z,98984.77
2019-05-20T21:25:15.605Z,98988.42
2019-05-20T21:27:22.112Z,98985.80
2019-05-20T21:29:32.341Z,98992.04
2019-05-20T21:31:36.609Z,98992.04
2019-05-20T21:33:43.061Z,99005.35
2019-05-20T21:35:49.449Z,98997.82
2019-05-20T21:37:55.859Z,98995.99
2019-05-20T21:40:02.335Z,98992.04
2019-05-20T21:42:09.158Z,98990.71
2019-05-20T21:44:16.991Z,98982.72
2019-05-20T21:46:23.389Z,98981.89
2019-05-20T21:48:29.786Z,98984.63
2019-05-20T21:50:36.191Z,98982.05
2019-05-20T21:52:42.601Z,98979.46
2019-05-20T21:54:48.999Z,98977.84
2019-05-20T21:56:55.435Z,98981.98
2019-05-20T21:59:01.910Z,98993.63
2019-05-20T22:01:08.372Z,98999.98
2019-05-20T22:03:23.901Z,99000.54
2019-05-20T22:05:24.464Z,99002.37
2019-05-20T22:07:31.292Z,99014.88
2019-05-20T22:09:38.015Z,99011.83
2019-05-20T22:11:44.476Z,99008.33
2019-05-20T22:13:52.744Z,99013.69
2019-05-20T22:15:59.143Z,99011.10
2019-05-20T22:18:05.609Z,99012.02
2019-05-20T22:20:12.221Z,99017.41
2019-05-20T22:22:26.145Z,99006.42
2019-05-20T22:24:32.539Z,99006.46
2019-05-20T22:26:38.920Z,99002.97
2019-05-20T22:28:45.424Z,99009.72
2019-05-20T22:30:51.823Z,98999.12
2019-05-20T22:32:58.213Z,99003.56
2019-05-20T22:35:07.240Z,98996.53
2019-05-20T22:37:12.833Z,98995.28
2019-05-20T22:39:19.107Z,98995.34
2019-05-20T22:41:25.572Z,98990.59
2019-05-20T22:43:32.079Z,98993.28
2019-05-20T22:45:38.476Z,98998.19
2019-05-20T22:47:44.865Z,99002.25
2019-05-20T22:49:51.321Z,98993.44
2019-05-20T22:51:57.716Z,98985.98
2019-05-20T22:54:04.210Z,98978.50
2019-05-20T22:56:10.713Z,98979.44
2019-05-20T22:58:17.211Z,98976.81
2019-05-20T23:00:23.739Z,98990.14
2019-05-20T23:02:30.144Z,98989.76
2019-05-20T23:04:36.952Z,98985.39
2019-05-20T23:06:43.339Z,98988.98
2019-05-20T23:08:49.751Z,98985.48
2019-05-20T23:10:56.140Z,98983.32
2019-05-20T23:13:02.599Z,98985.14
2019-05-20T23:15:10.298Z,98984.72
2019-05-20T23:17:17.119Z,98990.91
2019-05-20T23:19:23.594Z,98985.20
2019-05-20T23:21:29.988Z,98995.42
2019-05-20T23:23:36.362Z,98998.56
2019-05-20T23:25:44.011Z,98995.91
2019-05-20T23:27:53.108Z,98999.08
2019-05-20T23:29:59.485Z,98982.33
2019-05-20T23:32:05.926Z,98971.73
2019-05-20T23:34:13.382Z,98974.88
2019-05-20T23:36:20.093Z,98968.24
2019-05-20T23:38:26.592Z,98974.50
2019-05-20T23:40:33.118Z,98967.44
2019-05-20T23:42:39.508Z,98963.03
2019-05-20T23:44:45.941Z,98971.87
2019-05-20T23:46:52.334Z,98973.72
2019-05-20T23:49:00.411Z,98975.50
2019-05-20T23:51:06.855Z,98967.14
2019-05-20T23:53:13.411Z,98965.36
2019-05-20T23:55:19.865Z,98964.48
2019-05-20T23:57:26.366Z,98967.14
2019-05-20T23:59:32.748Z,98972.04
